Mitchel — WDE7728 — position and weather

sailwx.info

Track history (hours):
 
Tides and Currents Weather Stations Pressure Air Temp Water Temp Dewpoint Dewpoint Depression Visibility Wind Speed Wind Dir Waves Ship Positions

Mitchel

Owner: AMERICAN TUGS INC., SAN JUAN, PR. More information available from US FCC via Universal Licensing System and Coast Guard Vessel Documentation Center.

Last reported at 2015-Jun-18 04:22 UTC. Time now 2015-Jul-02 12:30 UTC.
Position N 13°53' W 061°07'.
Warning: this ship's position is 14 days out of date.

Length 27 m; draft 3.1 m.

Type: Tug. MMSI: 367346890.

Date/timePositionNaut miles runAvg speedWind from/ knotsBaromVisibWave heightAir tempDewpointWater temp
2015-Jun-18 04:22N 13°53' W 061°07'5 4.7
2015-Jun-18 03:12N 13°58' W 061°04'2 0.1
2015-Jun-17 10:24N 13°60' W 061°03'1 1.6
2015-Jun-17 09:33N 13°59' W 061°04'3 2.3
2015-Jun-17 08:10N 13°56' W 061°06'2 2.6
2015-Jun-17 07:22N 13°54' W 061°07'  
2015-Jun-12 20:33N 10°37' W 061°34'4 3.5
2015-Jun-12 19:33N 10°38' W 061°31'0 0.2
2015-Jun-12 18:33N 10°39' W 061°31'0 0.0
2015-Jun-12 17:33N 10°39' W 061°31'0 0.0
2015-Jun-12 16:33N 10°39' W 061°31'0 0.0
2015-Jun-12 15:33N 10°39' W 061°31'0 0.0
2015-Jun-12 14:33N 10°39' W 061°31'0 0.0
2015-Jun-12 13:33N 10°39' W 061°31'0 0.0
2015-Jun-12 12:33N 10°39' W 061°31'0 0.0
2015-Jun-12 11:33N 10°39' W 061°31'0 0.0
2015-Jun-12 10:33N 10°39' W 061°31'0 0.0
2015-Jun-12 09:33N 10°39' W 061°31'0 0.0
2015-Jun-12 08:33N 10°39' W 061°31'0 0.0
2015-Jun-12 07:33N 10°39' W 061°31'0 0.0
2015-Jun-12 06:33N 10°39' W 061°31'0 0.0
2015-Jun-12 05:33N 10°39' W 061°31'0 0.0
2015-Jun-12 04:33N 10°39' W 061°31'0 0.0
2015-Jun-12 03:33N 10°39' W 061°31'0 0.0
2015-Jun-12 02:33N 10°39' W 061°31'0 0.0
2015-Jun-12 01:33N 10°39' W 061°31'0 0.0
2015-Jun-12 00:33N 10°39' W 061°31'0 0.0
2015-Jun-11 23:33N 10°39' W 061°31'0 0.0
2015-Jun-11 22:33N 10°39' W 061°31'0 0.0
2015-Jun-11 21:33N 10°39' W 061°31'0 0.0
2015-Jun-11 20:33N 10°39' W 061°31'0 0.0
2015-Jun-11 19:33N 10°39' W 061°31'0 0.0
2015-Jun-11 18:33N 10°39' W 061°31'0 0.0
2015-Jun-11 17:33N 10°39' W 061°31'0 0.0
2015-Jun-11 16:33N 10°39' W 061°31'0 0.0
2015-Jun-11 15:33N 10°39' W 061°31'0 0.0
2015-Jun-11 14:33N 10°39' W 061°31'0 0.0
2015-Jun-11 13:33N 10°39' W 061°31'0 0.0
2015-Jun-11 12:30N 10°39' W 061°31'0 0.0
2015-Jun-11 11:33N 10°39' W 061°31'0 0.0
2015-Jun-11 10:33N 10°39' W 061°31'0 0.0
2015-Jun-11 09:33N 10°39' W 061°31'0 0.0
2015-Jun-11 08:33N 10°39' W 061°31'0 0.0
2015-Jun-11 07:33N 10°39' W 061°31'0 0.0
2015-Jun-11 06:33N 10°39' W 061°31'0 0.0
2015-Jun-11 05:30N 10°39' W 061°31'0 0.0
2015-Jun-11 04:33N 10°39' W 061°31'0 0.0
2015-Jun-11 03:33N 10°39' W 061°31'0 0.0
2015-Jun-11 02:33N 10°39' W 061°31'0 0.0
2015-Jun-11 01:33N 10°39' W 061°31'0 0.0
2015-Jun-10 23:33N 10°39' W 061°31'0 0.0
2015-Jun-10 22:33N 10°39' W 061°31'0 0.0
2015-Jun-10 21:33N 10°39' W 061°31'0 0.0
2015-Jun-10 20:33N 10°39' W 061°31'0 0.0
2015-Jun-10 19:30N 10°39' W 061°31'0 0.0
2015-Jun-10 18:33N 10°39' W 061°31'0 0.0
2015-Jun-10 15:33N 10°39' W 061°31'0 0.0
2015-Jun-10 14:33N 10°39' W 061°31'0 0.0
2015-Jun-10 13:33N 10°39' W 061°31'  
Track history (hours):
 
Tides and Currents Weather Stations Pressure Air Temp Water Temp Dewpoint Dewpoint Depression Visibility Wind Speed Wind Dir Waves Ship Positions

Mitchel

Owner: AMERICAN TUGS INC., SAN JUAN, PR. More information available from US FCC via Universal Licensing System and Coast Guard Vessel Documentation Center.

Last reported at 2015-Jun-18 04:22 UTC. Time now 2015-Jul-02 12:30 UTC.
Position N 13°53' W 061°07'.
Warning: this ship's position is 14 days out of date.

Length 27 m; draft 3.1 m.

Type: Tug. MMSI: 367346890.

Date/timePositionNaut miles runAvg speedWind from/ knotsBaromVisibWave heightAir tempDewpointWater temp
2015-Jun-18 04:22N 13°53' W 061°07'5 4.7
2015-Jun-18 03:12N 13°58' W 061°04'2 0.1
2015-Jun-17 10:24N 13°60' W 061°03'1 1.6
2015-Jun-17 09:33N 13°59' W 061°04'3 2.3
2015-Jun-17 08:10N 13°56' W 061°06'2 2.6
2015-Jun-17 07:22N 13°54' W 061°07'  
2015-Jun-12 20:33N 10°37' W 061°34'4 3.5
2015-Jun-12 19:33N 10°38' W 061°31'0 0.2
2015-Jun-12 18:33N 10°39' W 061°31'0 0.0
2015-Jun-12 17:33N 10°39' W 061°31'0 0.0
2015-Jun-12 16:33N 10°39' W 061°31'0 0.0
2015-Jun-12 15:33N 10°39' W 061°31'0 0.0
2015-Jun-12 14:33N 10°39' W 061°31'0 0.0
2015-Jun-12 13:33N 10°39' W 061°31'0 0.0
2015-Jun-12 12:33N 10°39' W 061°31'0 0.0
2015-Jun-12 11:33N 10°39' W 061°31'0 0.0
2015-Jun-12 10:33N 10°39' W 061°31'0 0.0
2015-Jun-12 09:33N 10°39' W 061°31'0 0.0
2015-Jun-12 08:33N 10°39' W 061°31'0 0.0
2015-Jun-12 07:33N 10°39' W 061°31'0 0.0
2015-Jun-12 06:33N 10°39' W 061°31'0 0.0
2015-Jun-12 05:33N 10°39' W 061°31'0 0.0
2015-Jun-12 04:33N 10°39' W 061°31'0 0.0
2015-Jun-12 03:33N 10°39' W 061°31'0 0.0
2015-Jun-12 02:33N 10°39' W 061°31'0 0.0
2015-Jun-12 01:33N 10°39' W 061°31'0 0.0
2015-Jun-12 00:33N 10°39' W 061°31'0 0.0
2015-Jun-11 23:33N 10°39' W 061°31'0 0.0
2015-Jun-11 22:33N 10°39' W 061°31'0 0.0
2015-Jun-11 21:33N 10°39' W 061°31'0 0.0
2015-Jun-11 20:33N 10°39' W 061°31'0 0.0
2015-Jun-11 19:33N 10°39' W 061°31'0 0.0
2015-Jun-11 18:33N 10°39' W 061°31'0 0.0
2015-Jun-11 17:33N 10°39' W 061°31'0 0.0
2015-Jun-11 16:33N 10°39' W 061°31'0 0.0
2015-Jun-11 15:33N 10°39' W 061°31'0 0.0
2015-Jun-11 14:33N 10°39' W 061°31'0 0.0
2015-Jun-11 13:33N 10°39' W 061°31'0 0.0
2015-Jun-11 12:30N 10°39' W 061°31'0 0.0
2015-Jun-11 11:33N 10°39' W 061°31'0 0.0
2015-Jun-11 10:33N 10°39' W 061°31'0 0.0
2015-Jun-11 09:33N 10°39' W 061°31'0 0.0
2015-Jun-11 08:33N 10°39' W 061°31'0 0.0
2015-Jun-11 07:33N 10°39' W 061°31'0 0.0
2015-Jun-11 06:33N 10°39' W 061°31'0 0.0
2015-Jun-11 05:30N 10°39' W 061°31'0 0.0
2015-Jun-11 04:33N 10°39' W 061°31'0 0.0
2015-Jun-11 03:33N 10°39' W 061°31'0 0.0
2015-Jun-11 02:33N 10°39' W 061°31'0 0.0
2015-Jun-11 01:33N 10°39' W 061°31'0 0.0
2015-Jun-10 23:33N 10°39' W 061°31'0 0.0
2015-Jun-10 22:33N 10°39' W 061°31'0 0.0
2015-Jun-10 21:33N 10°39' W 061°31'0 0.0
2015-Jun-10 20:33N 10°39' W 061°31'0 0.0
2015-Jun-10 19:30N 10°39' W 061°31'0 0.0
2015-Jun-10 18:33N 10°39' W 061°31'0 0.0
2015-Jun-10 15:33N 10°39' W 061°31'0 0.0
2015-Jun-10 14:33N 10°39' W 061°31'0 0.0
2015-Jun-10 13:33N 10°39' W 061°31'  

Dump ship's entire track history